Time;durP1;ratioP1;P1;durP2;ratioP2;P2;SDS_P1;SDS_P2;PMS_P1;PMS_P2;Temp;Humidity;BMP_temperature;BMP_pressure;BME280_temperature;BME280_humidity;BME280_pressure;Samples;Min_cycle;Max_cycle;Signal;HPM_P1;HPM_P2
2023/09/11 00:01:24;;;;;;;25.60;23.50;;;17.10;99.90;;;;;;4752592;30;20180;-44
2023/09/11 00:03:49;;;;;;;25.50;23.50;;;17.10;99.90;;;;;;4751659;30;20595;-44
2023/09/11 00:06:15;;;;;;;24.83;22.93;;;17.10;99.90;;;;;;4751507;30;20246;-45
2023/09/11 00:08:41;;;;;;;25.60;23.60;;;17.10;99.90;;;;;;4752605;30;20435;-48
2023/09/11 00:11:06;;;;;;;24.87;22.97;;;17.00;99.90;;;;;;4752079;30;20240;-47
2023/09/11 00:13:32;;;;;;;25.10;23.10;;;17.00;99.90;;;;;;4751919;30;20560;-45
2023/09/11 00:15:58;;;;;;;25.40;23.30;;;17.00;99.90;;;;;;4751385;30;20251;-46
2023/09/11 00:18:24;;;;;;;24.93;23.07;;;16.90;99.90;;;;;;4749612;30;20206;-46
2023/09/11 00:20:50;;;;;;;24.73;22.83;;;16.90;99.90;;;;;;4751612;30;20471;-43
2023/09/11 00:23:15;;;;;;;25.20;23.33;;;16.90;99.90;;;;;;4751101;30;20488;-46
2023/09/11 00:25:41;;;;;;;25.07;23.07;;;16.80;99.90;;;;;;4751778;30;20445;-47
2023/09/11 00:28:07;;;;;;;25.10;23.20;;;16.80;99.90;;;;;;4752179;30;20193;-48
2023/09/11 00:30:32;;;;;;;24.90;22.90;;;16.80;99.90;;;;;;4752186;30;20205;-47
2023/09/11 00:32:58;;;;;;;25.90;23.80;;;16.70;99.90;;;;;;4752169;30;20169;-44
2023/09/11 00:35:24;;;;;;;26.27;24.00;;;16.70;99.90;;;;;;4752003;30;20947;-48
2023/09/11 00:37:49;;;;;;;25.30;23.40;;;16.60;99.90;;;;;;4752133;30;20177;-46
2023/09/11 00:40:15;;;;;;;24.73;22.73;;;16.60;99.90;;;;;;4751113;30;20269;-48
2023/09/11 00:42:40;;;;;;;24.23;22.43;;;16.60;99.90;;;;;;4751372;30;20208;-44
2023/09/11 00:45:06;;;;;;;25.10;23.20;;;16.50;99.90;;;;;;4743904;30;20644;-44
2023/09/11 00:47:32;;;;;;;25.73;23.73;;;16.50;99.90;;;;;;4750095;30;20191;-50
2023/09/11 00:49:59;;;;;;;24.85;22.85;;;16.50;99.90;;;;;;4750834;30;20185;-52
2023/09/11 00:52:26;;;;;;;25.57;23.57;;;16.50;99.90;;;;;;4750345;30;20513;-51
2023/09/11 00:54:54;;;;;;;25.07;23.07;;;16.40;99.90;;;;;;4757020;30;21035;-53
2023/09/11 00:57:21;;;;;;;26.07;23.63;;;16.40;99.90;;;;;;4748630;30;20450;-53
2023/09/11 00:59:48;;;;;;;25.03;23.13;;;16.30;99.90;;;;;;4750581;30;20478;-48
2023/09/11 01:02:14;;;;;;;25.37;23.40;;;16.30;99.90;;;;;;4748834;30;20462;-53
2023/09/11 01:04:44;;;;;;;25.87;23.77;;;16.30;99.90;;;;;;4750538;30;20454;-51
2023/09/11 01:07:14;;;;;;;26.47;24.20;;;16.30;99.90;;;;;;4750391;30;20446;-55
2023/09/11 01:09:40;;;;;;;27.50;25.20;;;16.20;99.90;;;;;;4749073;30;20473;-54
2023/09/11 01:12:07;;;;;;;26.07;23.67;;;16.20;99.90;;;;;;4748788;30;20543;-49
2023/09/11 01:14:34;;;;;;;26.03;23.80;;;16.20;99.90;;;;;;4742587;30;20446;-54
2023/09/11 01:17:13;;;;;;;27.30;25.00;;;16.20;99.90;;;;;;4749086;30;20486;-52
2023/09/11 01:19:57;;;;;;;26.47;24.37;;;16.20;99.90;;;;;;4749292;30;20441;-52
2023/09/11 01:22:47;;;;;;;26.03;23.93;;;16.20;99.90;;;;;;4750241;30;20495;-54
2023/09/11 01:25:39;;;;;;;26.23;24.13;;;16.10;99.90;;;;;;4749806;30;20470;-54
2023/09/11 01:28:29;;;;;;;26.50;24.23;;;16.10;99.90;;;;;;4749666;30;20450;-51
2023/09/11 01:30:57;;;;;;;26.27;24.17;;;16.10;99.90;;;;;;4750148;30;20544;-53
2023/09/11 01:33:23;;;;;;;26.77;24.37;;;16.10;99.90;;;;;;4751193;30;20508;-48
2023/09/11 01:35:49;;;;;;;27.03;24.70;;;16.00;99.90;;;;;;4749149;30;21248;-51
2023/09/11 01:38:15;;;;;;;27.23;24.73;;;16.00;99.90;;;;;;4750541;30;20211;-53
2023/09/11 01:40:43;;;;;;;25.50;23.50;;;16.00;99.90;;;;;;4749511;30;20303;-53
2023/09/11 01:43:12;;;;;;;27.03;24.73;;;15.90;99.90;;;;;;4749154;30;20656;-54
2023/09/11 01:45:40;;;;;;;27.60;25.30;;;15.90;99.90;;;;;;4742387;30;20455;-50
2023/09/11 01:48:08;;;;;;;27.63;25.33;;;15.90;99.90;;;;;;4749306;30;20454;-50
2023/09/11 01:50:36;;;;;;;26.43;24.27;;;15.90;99.90;;;;;;4748699;30;20809;-50
2023/09/11 01:53:04;;;;;;;25.67;23.30;;;15.90;99.90;;;;;;4749583;30;20569;-53
2023/09/11 01:55:32;;;;;;;27.40;25.17;;;15.90;99.90;;;;;;4756400;30;20438;-50
2023/09/11 01:57:58;;;;;;;25.83;23.63;;;15.90;99.90;;;;;;4749752;30;20446;-53
2023/09/11 02:00:23;;;;;;;26.20;24.00;;;15.90;99.90;;;;;;4748686;30;20461;-50
2023/09/11 02:02:52;;;;;;;26.90;24.70;;;15.90;99.90;;;;;;4749241;30;20717;-49
2023/09/11 02:05:18;;;;;;;26.70;24.50;;;15.80;99.90;;;;;;4748566;30;20192;-50
2023/09/11 02:07:44;;;;;;;28.70;26.00;;;15.80;99.90;;;;;;4750287;30;20515;-57
2023/09/11 02:10:09;;;;;;;26.67;24.47;;;15.80;99.90;;;;;;4749096;30;20204;-53
2023/09/11 02:12:35;;;;;;;27.07;24.87;;;15.80;99.90;;;;;;4749126;30;20683;-49
2023/09/11 02:15:00;;;;;;;28.27;25.83;;;15.80;99.90;;;;;;4741504;30;20177;-55
2023/09/11 02:17:26;;;;;;;26.57;24.40;;;15.80;99.90;;;;;;4747818;30;20239;-52
2023/09/11 02:19:52;;;;;;;26.97;24.77;;;15.70;99.90;;;;;;4750408;30;20181;-51
2023/09/11 02:22:17;;;;;;;26.93;24.73;;;15.70;99.90;;;;;;4749990;30;20224;-53
2023/09/11 02:24:43;;;;;;;25.80;23.70;;;15.70;99.90;;;;;;4750107;30;20236;-58
2023/09/11 02:27:08;;;;;;;27.87;25.57;;;15.70;99.90;;;;;;4750187;30;20188;-53
2023/09/11 02:29:34;;;;;;;28.00;25.70;;;15.60;99.90;;;;;;4749877;30;20262;-53
2023/09/11 02:32:00;;;;;;;27.30;25.00;;;15.60;99.90;;;;;;4749870;30;20305;-54
2023/09/11 02:34:26;;;;;;;26.80;24.40;;;15.60;99.90;;;;;;4749972;30;20185;-52
2023/09/11 02:36:52;;;;;;;28.00;25.60;;;15.60;99.90;;;;;;4750072;30;20543;-55
2023/09/11 02:39:17;;;;;;;28.10;25.70;;;15.60;99.90;;;;;;4749662;30;20272;-53
2023/09/11 02:41:43;;;;;;;27.17;24.97;;;15.50;99.90;;;;;;4749250;30;20258;-47
2023/09/11 02:44:08;;;;;;;26.93;24.63;;;15.50;99.90;;;;;;4742156;30;20220;-51
2023/09/11 02:46:34;;;;;;;26.53;24.40;;;15.50;99.90;;;;;;4748127;30;20216;-53
2023/09/11 02:49:00;;;;;;;27.90;25.60;;;15.50;99.90;;;;;;4749401;30;20207;-49
2023/09/11 02:51:27;;;;;;;26.13;24.03;;;15.50;99.90;;;;;;4748765;30;20220;-54
2023/09/11 02:53:53;;;;;;;26.50;24.20;;;15.50;99.90;;;;;;4746774;30;20196;-49
2023/09/11 02:56:18;;;;;;;25.27;23.23;;;15.40;99.90;;;;;;4748952;30;20899;-53
2023/09/11 02:58:44;;;;;;;26.37;24.17;;;15.40;99.90;;;;;;4748638;30;20234;-54
2023/09/11 03:01:09;;;;;;;27.03;24.67;;;15.40;99.90;;;;;;4749486;30;20287;-49
2023/09/11 03:03:35;;;;;;;26.80;24.50;;;15.40;99.90;;;;;;4749513;30;20193;-52
2023/09/11 03:06:02;;;;;;;26.17;23.97;;;15.30;99.90;;;;;;4749086;30;20245;-52
2023/09/11 03:08:28;;;;;;;26.30;23.90;;;15.30;99.90;;;;;;4749545;30;20204;-50
2023/09/11 03:10:54;;;;;;;26.63;24.33;;;15.30;99.90;;;;;;4748335;30;20489;-48
2023/09/11 03:13:20;;;;;;;26.13;23.90;;;15.30;99.90;;;;;;4748708;30;20457;-54
2023/09/11 03:15:45;;;;;;;26.27;24.17;;;15.30;99.90;;;;;;4748373;30;20490;-52
2023/09/11 03:18:11;;;;;;;25.63;23.43;;;15.30;99.90;;;;;;4749170;30;20248;-52
2023/09/11 03:20:38;;;;;;;27.10;24.80;;;15.20;99.90;;;;;;4749327;30;20193;-52
2023/09/11 03:23:03;;;;;;;26.23;24.03;;;15.20;99.90;;;;;;4747867;30;20434;-52
2023/09/11 03:25:45;;;;;;;25.80;23.60;;;15.20;99.90;;;;;;4748617;30;20572;-48
2023/09/11 03:28:11;;;;;;;26.43;24.10;;;15.20;99.90;;;;;;4749133;30;20692;-49
2023/09/11 03:30:36;;;;;;;27.57;25.17;;;15.20;99.90;;;;;;4749005;30;20615;-51
2023/09/11 03:33:02;;;;;;;27.63;25.23;;;15.10;99.90;;;;;;4749211;30;20193;-55
2023/09/11 03:35:27;;;;;;;26.20;24.03;;;15.10;99.90;;;;;;4749291;30;20244;-51
2023/09/11 03:37:53;;;;;;;27.60;25.10;;;15.10;99.90;;;;;;4748926;30;20177;-51
2023/09/11 03:40:20;;;;;;;27.23;24.67;;;15.10;99.90;;;;;;4749152;30;20203;-53
2023/09/11 03:42:45;;;;;;;27.10;24.63;;;15.10;99.90;;;;;;4748798;30;20185;-51
2023/09/11 03:45:11;;;;;;;27.93;25.50;;;15.00;99.90;;;;;;4741700;30;20492;-53
2023/09/11 03:47:37;;;;;;;27.30;25.00;;;15.00;99.90;;;;;;4748237;30;20193;-54
2023/09/11 03:50:04;;;;;;;27.30;24.90;;;15.10;99.90;;;;;;4748684;30;20287;-51
2023/09/11 03:52:30;;;;;;;28.80;26.30;;;15.10;99.90;;;;;;4748877;30;20197;-49
2023/09/11 03:54:55;;;;;;;27.73;25.27;;;15.10;99.90;;;;;;4754472;30;20830;-51
2023/09/11 03:57:21;;;;;;;26.20;23.80;;;15.10;99.90;;;;;;4732055;30;20186;-46
2023/09/11 03:59:46;;;;;;;26.73;24.43;;;15.00;99.90;;;;;;4737139;30;20632;-50
2023/09/11 04:02:12;;;;;;;28.40;26.00;;;15.00;99.90;;;;;;4745722;30;20185;-48
2023/09/11 04:04:38;;;;;;;27.70;25.30;;;15.00;99.90;;;;;;4748668;30;20248;-46
2023/09/11 04:07:03;;;;;;;27.10;24.60;;;15.00;99.90;;;;;;4748667;30;20196;-50
2023/09/11 04:09:30;;;;;;;27.27;24.87;;;15.00;99.90;;;;;;4748182;30;20208;-53
2023/09/11 04:11:56;;;;;;;27.00;24.67;;;14.90;99.90;;;;;;4748583;30;20219;-52
2023/09/11 04:14:22;;;;;;;28.30;25.70;;;14.90;99.90;;;;;;4747977;30;20938;-56
2023/09/11 04:16:48;;;;;;;28.60;26.00;;;14.90;99.90;;;;;;4746388;30;20518;-54
2023/09/11 04:19:13;;;;;;;27.40;24.70;;;14.90;99.90;;;;;;4747852;30;20253;-53
2023/09/11 04:21:39;;;;;;;27.73;25.13;;;14.90;99.90;;;;;;4746961;30;20188;-54
2023/09/11 04:24:10;;;;;;;27.40;24.90;;;14.90;99.90;;;;;;4747459;30;20200;-50
2023/09/11 04:26:36;;;;;;;26.53;24.20;;;14.90;99.90;;;;;;4748290;30;20203;-50
2023/09/11 04:29:02;;;;;;;26.93;24.53;;;14.90;99.90;;;;;;4742145;30;20447;-51
2023/09/11 04:31:27;;;;;;;27.27;24.77;;;14.90;99.90;;;;;;4733718;30;20564;-49
2023/09/11 04:33:53;;;;;;;27.17;24.77;;;14.90;99.90;;;;;;4737455;30;20426;-53
2023/09/11 04:36:18;;;;;;;27.87;25.37;;;14.90;99.90;;;;;;4737850;30;20258;-52
2023/09/11 04:38:44;;;;;;;25.60;23.20;;;14.90;99.90;;;;;;4741586;30;20197;-50
2023/09/11 04:41:10;;;;;;;28.60;26.10;;;14.90;99.90;;;;;;4742958;30;20272;-52
2023/09/11 04:43:35;;;;;;;26.70;24.30;;;14.90;99.90;;;;;;4740958;30;20203;-48
2023/09/11 04:46:01;;;;;;;27.63;25.13;;;14.90;99.90;;;;;;4738967;30;20220;-54
2023/09/11 04:48:27;;;;;;;27.83;25.13;;;14.90;99.90;;;;;;4739145;30;20957;-50
2023/09/11 04:50:52;;;;;;;28.03;25.50;;;14.90;99.90;;;;;;4740555;30;20232;-51
2023/09/11 04:53:18;;;;;;;29.33;26.37;;;14.90;99.90;;;;;;4742411;30;20224;-51
2023/09/11 04:55:43;;;;;;;31.90;28.60;;;14.90;99.90;;;;;;4741898;30;20218;-53
2023/09/11 04:58:09;;;;;;;29.93;27.10;;;14.90;99.90;;;;;;4742429;30;20199;-52
2023/09/11 05:00:34;;;;;;;28.37;25.57;;;14.90;99.90;;;;;;4741768;30;20668;-50
2023/09/11 05:03:00;;;;;;;27.27;24.67;;;14.90;99.90;;;;;;4742575;30;20555;-54
2023/09/11 05:05:26;;;;;;;27.50;24.83;;;15.00;99.90;;;;;;4742362;30;20953;-48
2023/09/11 05:07:51;;;;;;;27.83;25.10;;;15.00;99.90;;;;;;4739042;30;20196;-53
2023/09/11 05:10:18;;;;;;;27.00;24.60;;;15.00;99.90;;;;;;4742247;30;20184;-50
2023/09/11 05:12:45;;;;;;;27.33;25.03;;;15.00;99.90;;;;;;4741772;30;20632;-49
2023/09/11 05:15:11;;;;;;;28.67;25.97;;;15.00;99.90;;;;;;4743132;30;20441;-52
2023/09/11 05:17:37;;;;;;;27.90;25.30;;;15.10;99.90;;;;;;4741976;30;20474;-50
2023/09/11 05:20:04;;;;;;;27.20;24.70;;;15.10;99.90;;;;;;4741846;30;20446;-50
2023/09/11 05:22:30;;;;;;;27.57;25.17;;;15.10;99.90;;;;;;4741811;30;20521;-52
2023/09/11 05:24:56;;;;;;;27.83;25.33;;;15.10;99.90;;;;;;4742039;30;20516;-52
2023/09/11 05:27:22;;;;;;;28.37;25.37;;;15.20;99.90;;;;;;4741289;30;20269;-52
2023/09/11 05:29:48;;;;;;;28.47;25.97;;;15.20;99.90;;;;;;4741860;30;20187;-54
2023/09/11 05:32:13;;;;;;;27.40;24.87;;;15.20;99.90;;;;;;4741262;30;20281;-52
2023/09/11 05:34:39;;;;;;;27.80;25.27;;;15.20;99.90;;;;;;4739853;30;20442;-52
2023/09/11 05:37:05;;;;;;;29.10;26.50;;;15.20;99.90;;;;;;4741043;30;20212;-53
2023/09/11 05:39:31;;;;;;;28.53;25.93;;;15.30;99.90;;;;;;4742320;30;20193;-53
2023/09/11 05:41:57;;;;;;;29.33;26.53;;;15.30;99.90;;;;;;4741407;30;20232;-54
2023/09/11 05:44:23;;;;;;;28.00;25.50;;;15.40;99.90;;;;;;4739869;30;21017;-49
2023/09/11 05:46:49;;;;;;;27.93;25.03;;;15.40;99.90;;;;;;4740194;30;20200;-52
2023/09/11 05:49:15;;;;;;;28.43;25.73;;;15.50;99.90;;;;;;4741661;30;20200;-51
2023/09/11 05:51:40;;;;;;;26.57;24.07;;;15.50;99.90;;;;;;4740067;30;20542;-54
2023/09/11 05:54:06;;;;;;;27.50;25.00;;;15.50;99.90;;;;;;4741565;30;20195;-52
2023/09/11 05:56:31;;;;;;;27.13;24.83;;;15.60;99.90;;;;;;4741276;30;20223;-54
2023/09/11 05:58:57;;;;;;;26.17;23.97;;;15.60;99.90;;;;;;4740234;30;20205;-51
2023/09/11 06:01:23;;;;;;;27.47;25.00;;;15.60;99.90;;;;;;4741821;30;20192;-52
2023/09/11 06:03:48;;;;;;;26.90;24.60;;;15.70;99.90;;;;;;4740087;30;20211;-52
2023/09/11 06:06:14;;;;;;;27.50;25.00;;;15.80;99.90;;;;;;4741376;30;20196;-52
2023/09/11 06:08:40;;;;;;;27.63;25.23;;;15.80;99.90;;;;;;4741104;30;20291;-54
2023/09/11 06:11:05;;;;;;;26.20;24.10;;;15.90;99.90;;;;;;4741528;30;20212;-53
2023/09/11 06:13:33;;;;;;;25.80;23.37;;;16.00;99.90;;;;;;4741309;30;20234;-52
2023/09/11 06:15:58;;;;;;;27.30;24.90;;;16.10;99.90;;;;;;4740184;30;20259;-52
2023/09/11 06:18:24;;;;;;;27.87;25.27;;;16.20;99.90;;;;;;4740890;30;20439;-51
2023/09/11 06:20:49;;;;;;;25.73;23.53;;;16.30;99.90;;;;;;4741232;30;20985;-53
2023/09/11 06:23:15;;;;;;;26.57;24.27;;;16.40;99.90;;;;;;4741681;30;20228;-53
2023/09/11 06:25:40;;;;;;;26.87;24.60;;;16.40;99.90;;;;;;4740914;30;20188;-51
2023/09/11 06:28:06;;;;;;;25.80;23.70;;;16.50;99.90;;;;;;4739688;30;20254;-52
2023/09/11 06:30:32;;;;;;;24.80;22.80;;;16.60;99.90;;;;;;4740866;30;20216;-47
2023/09/11 06:32:58;;;;;;;25.43;23.43;;;16.70;99.90;;;;;;4741216;30;20289;-50
2023/09/11 06:35:23;;;;;;;24.73;22.63;;;16.70;99.90;;;;;;4740498;30;20446;-56
2023/09/11 06:37:49;;;;;;;26.40;24.23;;;16.80;99.90;;;;;;4741802;30;20214;-54
2023/09/11 06:40:15;;;;;;;25.10;23.10;;;16.90;99.90;;;;;;4741079;30;20207;-54
2023/09/11 06:42:41;;;;;;;25.97;23.97;;;17.00;99.90;;;;;;4741804;30;20268;-46
2023/09/11 06:45:07;;;;;;;24.80;22.80;;;17.10;99.90;;;;;;4740179;30;20586;-49
2023/09/11 06:47:33;;;;;;;24.23;22.33;;;17.20;99.90;;;;;;4740193;30;20453;-52
2023/09/11 06:49:59;;;;;;;25.53;23.53;;;17.30;99.90;;;;;;4740444;30;20446;-54
2023/09/11 06:52:25;;;;;;;26.57;24.67;;;17.40;99.90;;;;;;4740892;30;20688;-54
2023/09/11 06:54:50;;;;;;;23.93;22.20;;;17.50;99.90;;;;;;4740591;30;20457;-51
2023/09/11 06:57:16;;;;;;;24.83;22.97;;;17.60;99.90;;;;;;4739119;30;20199;-53
2023/09/11 06:59:41;;;;;;;25.07;23.07;;;17.70;99.90;;;;;;4739696;30;20207;-51
2023/09/11 07:02:08;;;;;;;24.03;22.13;;;17.80;99.90;;;;;;4739941;30;20192;-51
2023/09/11 07:04:33;;;;;;;25.03;23.13;;;17.90;99.90;;;;;;4739586;30;20277;-52
2023/09/11 07:06:59;;;;;;;25.23;23.30;;;18.10;99.90;;;;;;4740266;30;20454;-49
2023/09/11 07:09:25;;;;;;;24.27;22.40;;;18.20;99.90;;;;;;4741012;30;20196;-51
2023/09/11 07:11:51;;;;;;;23.40;21.50;;;18.30;99.90;;;;;;4740697;30;20319;-53
2023/09/11 07:14:20;;;;;;;25.40;23.33;;;18.50;99.90;;;;;;4739130;30;20694;-51
2023/09/11 07:16:46;;;;;;;23.30;21.60;;;18.60;99.90;;;;;;4739111;30;20241;-50
2023/09/11 07:19:11;;;;;;;24.10;22.30;;;18.70;99.90;;;;;;4740008;30;20473;-50
2023/09/11 07:21:37;;;;;;;24.33;22.53;;;18.80;99.90;;;;;;4739970;30;20231;-51
2023/09/11 07:24:03;;;;;;;24.17;22.37;;;18.90;99.90;;;;;;4739435;30;20192;-50
2023/09/11 07:26:28;;;;;;;24.20;22.30;;;19.00;99.90;;;;;;4739322;30;20242;-54
2023/09/11 07:29:02;;;;;;;23.87;21.93;;;19.20;99.90;;;;;;4739351;30;20235;-55
2023/09/11 07:31:28;;;;;;;22.73;21.07;;;19.30;99.90;;;;;;4738861;30;20213;-54
2023/09/11 07:33:54;;;;;;;24.20;22.50;;;19.40;99.90;;;;;;4738650;30;20497;-53
2023/09/11 07:36:20;;;;;;;24.97;22.67;;;19.50;99.90;;;;;;4739807;30;20204;-54
2023/09/11 07:38:46;;;;;;;23.57;21.87;;;19.70;99.90;;;;;;4739601;30;20200;-55
2023/09/11 07:41:14;;;;;;;24.57;22.27;;;19.80;99.90;;;;;;4752817;30;20249;-52
2023/09/11 07:43:39;;;;;;;23.20;21.60;;;20.00;99.90;;;;;;4739965;30;20488;-54
2023/09/11 07:46:05;;;;;;;23.63;22.00;;;20.20;99.90;;;;;;4739282;30;20442;-52
2023/09/11 07:48:30;;;;;;;22.13;20.63;;;20.30;99.90;;;;;;4738187;30;20201;-52
2023/09/11 07:50:56;;;;;;;24.00;22.30;;;20.50;99.90;;;;;;4739951;30;20304;-53
2023/09/11 07:53:22;;;;;;;22.77;21.17;;;20.60;99.90;;;;;;4739778;30;20201;-52
2023/09/11 07:55:48;;;;;;;22.93;21.23;;;20.70;99.90;;;;;;4740167;30;20712;-58
2023/09/11 07:58:14;;;;;;;22.00;20.40;;;20.90;99.90;;;;;;4740729;30;20750;-53
2023/09/11 08:00:40;;;;;;;23.47;21.67;;;21.00;99.90;;;;;;4737734;30;20209;-50
2023/09/11 08:03:05;;;;;;;23.47;21.77;;;21.20;99.90;;;;;;4738837;30;20449;-54
2023/09/11 08:05:31;;;;;;;21.70;19.90;;;21.40;99.90;;;;;;4739348;30;20268;-52
2023/09/11 08:08:01;;;;;;;22.17;20.67;;;21.60;99.90;;;;;;4740369;30;20597;-53
2023/09/11 08:10:27;;;;;;;21.17;19.43;;;21.80;99.90;;;;;;4740095;30;20204;-52
2023/09/11 08:12:53;;;;;;;22.00;20.40;;;22.10;99.90;;;;;;4743899;30;20433;-50
2023/09/11 08:15:18;;;;;;;21.23;19.57;;;22.30;99.90;;;;;;4743504;30;20446;-55
2023/09/11 08:17:44;;;;;;;19.10;17.70;;;22.50;99.90;;;;;;4743404;30;20323;-52
2023/09/11 08:20:10;;;;;;;21.23;19.63;;;22.90;99.90;;;;;;4743614;30;20196;-52
2023/09/11 08:22:37;;;;;;;21.70;20.20;;;23.20;99.90;;;;;;4743420;30;20205;-54
2023/09/11 08:25:02;;;;;;;21.27;19.77;;;23.50;99.90;;;;;;4743124;30;20434;-50
2023/09/11 08:27:28;;;;;;;21.37;19.87;;;23.80;99.90;;;;;;4743252;30;20449;-49
2023/09/11 08:29:55;;;;;;;20.90;19.60;;;24.10;99.90;;;;;;4743055;30;20228;-54
2023/09/11 08:32:21;;;;;;;22.50;20.53;;;24.40;99.90;;;;;;4742936;30;20749;-52
2023/09/11 08:34:47;;;;;;;21.20;19.80;;;24.80;99.90;;;;;;4743078;30;20450;-52
2023/09/11 08:37:12;;;;;;;19.17;17.93;;;25.20;99.90;;;;;;4742465;30;20648;-50
2023/09/11 08:39:38;;;;;;;19.23;18.00;;;25.70;97.80;;;;;;4742513;30;20203;-53
2023/09/11 08:42:04;;;;;;;20.43;18.93;;;26.30;96.20;;;;;;4742191;30;20557;-53
2023/09/11 08:44:30;;;;;;;20.50;19.30;;;26.90;93.60;;;;;;4742879;30;20744;-50
2023/09/11 08:46:59;;;;;;;20.17;18.90;;;27.60;90.50;;;;;;4740464;30;22363;-53
2023/09/11 08:49:32;;;;;;;19.97;18.77;;;28.30;85.60;;;;;;4741769;30;20283;-55
2023/09/11 08:52:01;;;;;;;20.03;18.83;;;28.90;81.00;;;;;;4742583;30;21111;-56
2023/09/11 08:54:32;;;;;;;20.93;19.53;;;29.60;75.60;;;;;;4742764;30;20455;-53
2023/09/11 08:56:59;;;;;;;20.77;19.47;;;30.30;65.70;;;;;;4743064;30;20437;-54
2023/09/11 08:59:26;;;;;;;19.50;18.40;;;30.90;61.60;;;;;;4742506;30;20475;-55
2023/09/11 09:01:52;;;;;;;20.53;19.13;;;31.50;57.90;;;;;;4739388;30;20466;-58
2023/09/11 09:04:19;;;;;;;19.83;18.73;;;32.00;54.80;;;;;;4740488;30;20545;-57
2023/09/11 09:06:46;;;;;;;20.50;19.23;;;32.50;50.50;;;;;;4742465;30;20459;-57
2023/09/11 09:09:12;;;;;;;19.03;17.83;;;32.70;48.60;;;;;;4742545;30;20450;-56
2023/09/11 09:11:40;;;;;;;19.33;18.33;;;32.90;46.30;;;;;;4742327;30;20474;-58
2023/09/11 09:14:07;;;;;;;19.57;18.37;;;33.30;45.70;;;;;;4742435;30;20208;-57
2023/09/11 09:16:34;;;;;;;19.50;18.30;;;33.50;43.00;;;;;;4742151;30;21057;-58
2023/09/11 09:19:00;;;;;;;20.03;18.80;;;33.60;42.60;;;;;;4742484;30;21013;-58
2023/09/11 09:21:27;;;;;;;19.20;18.10;;;33.80;42.00;;;;;;4742323;30;20550;-58
2023/09/11 09:23:53;;;;;;;19.80;18.70;;;34.00;39.00;;;;;;4741486;30;20439;-58
2023/09/11 09:26:19;;;;;;;19.40;18.33;;;34.20;38.60;;;;;;4740417;30;20446;-58
2023/09/11 09:28:47;;;;;;;20.50;19.30;;;34.80;37.50;;;;;;4742100;30;20645;-57
2023/09/11 09:31:25;;;;;;;19.63;18.47;;;35.00;36.30;;;;;;4741615;30;20474;-58
2023/09/11 09:33:53;;;;;;;19.20;18.20;;;35.30;33.80;;;;;;4742327;30;20469;-57
2023/09/11 09:36:19;;;;;;;19.90;18.80;;;35.10;33.60;;;;;;4741492;30;20470;-58
2023/09/11 09:38:44;;;;;;;19.40;18.20;;;34.90;34.10;;;;;;4742084;30;20533;-57
2023/09/11 09:41:10;;;;;;;20.20;19.10;;;35.30;33.90;;;;;;4741571;30;20200;-58
2023/09/11 09:43:36;;;;;;;19.07;17.97;;;35.50;31.50;;;;;;4741976;30;20281;-57
2023/09/11 09:46:17;;;;;;;19.77;18.67;;;35.80;32.10;;;;;;4741236;30;21040;-57
2023/09/11 09:48:43;;;;;;;18.93;17.93;;;36.10;32.10;;;;;;4742258;30;20251;-56
2023/09/11 09:51:09;;;;;;;19.83;18.63;;;36.30;30.70;;;;;;4741676;30;20588;-57
2023/09/11 09:53:41;;;;;;;19.20;18.10;;;36.40;30.20;;;;;;4741897;30;20275;-57
2023/09/11 09:56:08;;;;;;;19.70;18.60;;;36.80;30.40;;;;;;4742270;30;20188;-58
2023/09/11 09:58:44;;;;;;;19.60;18.60;;;37.50;29.60;;;;;;4741160;30;20817;-56
2023/09/11 10:01:11;;;;;;;19.40;18.30;;;37.80;28.10;;;;;;4743192;30;20530;-58
2023/09/11 10:03:48;;;;;;;19.70;18.60;;;38.10;26.00;;;;;;4741898;30;21233;-54
2023/09/11 10:06:15;;;;;;;18.83;17.83;;;37.70;27.40;;;;;;4740835;30;20960;-57
2023/09/11 10:08:40;;;;;;;19.40;18.30;;;38.10;26.20;;;;;;4740963;30;20434;-53
2023/09/11 10:11:06;;;;;;;18.67;17.67;;;38.10;26.20;;;;;;4740702;30;20485;-56
2023/09/11 10:13:35;;;;;;;18.67;17.67;;;38.40;26.10;;;;;;4741022;30;20199;-57
2023/09/11 10:16:01;;;;;;;19.70;18.60;;;38.40;26.00;;;;;;4740749;30;20228;-58
2023/09/11 10:18:31;;;;;;;19.87;18.77;;;38.70;25.30;;;;;;4740659;30;20439;-58
2023/09/11 10:20:57;;;;;;;19.37;18.37;;;38.90;24.60;;;;;;4741617;30;20442;-58
2023/09/11 10:23:23;;;;;;;17.93;17.03;;;38.90;24.70;;;;;;4741687;30;20476;-57
2023/09/11 10:25:53;;;;;;;18.17;17.20;;;39.00;24.60;;;;;;4741645;30;20438;-58
2023/09/11 10:28:33;;;;;;;15.70;14.90;;;39.30;23.80;;;;;;4741787;30;20192;-58
2023/09/11 10:31:04;;;;;;;17.87;16.83;;;39.60;21.40;;;;;;4741834;30;20478;-57
2023/09/11 10:33:31;;;;;;;18.63;17.33;;;39.80;20.40;;;;;;4740355;30;20434;-55
2023/09/11 10:36:03;;;;;;;17.10;16.20;;;40.10;20.40;;;;;;4740607;30;20457;-57
2023/09/11 10:38:31;;;;;;;17.83;16.70;;;40.40;19.40;;;;;;4741147;30;20913;-58
2023/09/11 10:40:59;;;;;;;17.07;16.07;;;40.50;19.10;;;;;;4741181;30;20905;-58
2023/09/11 10:43:26;;;;;;;16.50;15.70;;;41.30;18.40;;;;;;4740623;30;20446;-59
2023/09/11 10:45:52;;;;;;;16.70;15.90;;;41.30;18.20;;;;;;4740781;30;20441;-61
2023/09/11 10:48:32;;;;;;;15.50;14.70;;;41.30;17.90;;;;;;4740225;30;20472;-59
2023/09/11 10:50:59;;;;;;;17.00;16.20;;;41.30;17.80;;;;;;4741112;30;20509;-58
2023/09/11 10:53:29;;;;;;;15.23;14.53;;;41.30;17.60;;;;;;4740164;30;20457;-58
2023/09/11 10:55:57;;;;;;;17.00;16.00;;;41.40;17.70;;;;;;4739428;30;20484;-59
2023/09/11 10:58:23;;;;;;;17.17;16.27;;;41.60;17.00;;;;;;4740948;30;20488;-58
2023/09/11 11:00:53;;;;;;;17.60;16.60;;;41.50;17.00;;;;;;4740586;30;20540;-58
2023/09/11 11:03:19;;;;;;;16.20;15.40;;;41.70;16.80;;;;;;4740084;30;20196;-58
2023/09/11 11:05:46;;;;;;;16.70;15.90;;;41.80;16.50;;;;;;4740593;30;20834;-59
2023/09/11 11:08:12;;;;;;;16.40;15.60;;;42.10;15.90;;;;;;4740368;30;20210;-54
2023/09/11 11:10:44;;;;;;;16.60;15.80;;;42.00;15.70;;;;;;4740108;30;20849;-57
2023/09/11 11:13:11;;;;;;;15.43;14.63;;;42.70;15.70;;;;;;4740588;30;20188;-57
2023/09/11 11:15:36;;;;;;;15.90;15.10;;;42.80;15.90;;;;;;4740755;30;20880;-58
2023/09/11 11:18:06;;;;;;;15.80;15.10;;;42.80;15.20;;;;;;4740395;30;20457;-57
2023/09/11 11:20:33;;;;;;;15.10;14.30;;;42.80;15.60;;;;;;4740557;30;20263;-58
2023/09/11 11:23:12;;;;;;;16.57;15.77;;;42.80;15.30;;;;;;4739829;30;20466;-58
2023/09/11 11:25:41;;;;;;;16.20;15.40;;;42.70;16.10;;;;;;4739731;30;20446;-58
2023/09/11 11:28:10;;;;;;;17.80;16.90;;;42.90;15.40;;;;;;4740694;30;20430;-58
2023/09/11 11:30:37;;;;;;;16.33;15.53;;;43.00;15.80;;;;;;4740112;30;20519;-58
2023/09/11 11:33:04;;;;;;;16.97;16.17;;;42.80;15.90;;;;;;4740127;30;20446;-56
2023/09/11 11:35:30;;;;;;;17.00;16.10;;;43.00;15.90;;;;;;4740186;30;20452;-58
2023/09/11 11:37:56;;;;;;;16.50;15.57;;;43.20;15.60;;;;;;4738938;30;20789;-58
2023/09/11 11:40:21;;;;;;;16.87;15.97;;;43.20;15.20;;;;;;4738944;30;20200;-57
2023/09/11 11:42:47;;;;;;;17.03;15.97;;;43.40;15.80;;;;;;4740094;30;20219;-57
2023/09/11 11:45:15;;;;;;;16.10;15.30;;;43.30;15.20;;;;;;4740553;30;20247;-58
2023/09/11 11:47:41;;;;;;;17.80;16.90;;;43.00;15.20;;;;;;4745670;30;20438;-58
2023/09/11 11:50:11;;;;;;;17.27;16.37;;;42.90;15.20;;;;;;4745482;30;20824;-57
2023/09/11 11:52:36;;;;;;;16.27;15.50;;;42.70;15.10;;;;;;4745430;30;20187;-57
2023/09/11 11:55:14;;;;;;;16.07;15.27;;;42.90;16.40;;;;;;4745998;30;20538;-57
2023/09/11 11:57:40;;;;;;;16.47;15.67;;;43.10;15.90;;;;;;4746387;30;20215;-52
2023/09/11 12:00:10;;;;;;;18.20;17.30;;;43.40;15.40;;;;;;4746129;30;20445;-58
2023/09/11 12:02:36;;;;;;;17.50;16.60;;;43.50;14.50;;;;;;4746532;30;20212;-57
2023/09/11 12:05:11;;;;;;;18.20;17.20;;;43.60;13.90;;;;;;4745935;30;20492;-57
2023/09/11 12:07:37;;;;;;;18.00;17.10;;;42.60;14.00;;;;;;4746506;30;20180;-57
2023/09/11 12:10:03;;;;;;;18.67;17.73;;;42.90;14.70;;;;;;4746243;30;20792;-57
2023/09/11 12:12:28;;;;;;;18.00;17.10;;;42.40;14.80;;;;;;4746181;30;20996;-57
2023/09/11 12:14:58;;;;;;;17.37;16.47;;;42.40;15.10;;;;;;4746151;30;20227;-57
2023/09/11 12:17:24;;;;;;;18.17;17.17;;;42.80;15.40;;;;;;4746213;30;20247;-55
2023/09/11 12:19:49;;;;;;;18.00;17.10;;;43.00;16.00;;;;;;4745979;30;20500;-57
2023/09/11 12:22:15;;;;;;;17.40;16.50;;;43.00;15.00;;;;;;4746317;30;20216;-57
2023/09/11 12:24:40;;;;;;;17.97;17.07;;;42.90;15.20;;;;;;4745415;30;20192;-53
2023/09/11 12:27:07;;;;;;;18.10;17.23;;;43.10;15.40;;;;;;4745536;30;20566;-53